sensor_id;sensor_type;location;lat;lon;timestamp;P1;durP1;ratioP1;P2;durP2;ratioP2
54191;SDS011;40101;53.002;6.488;2023-08-21T00:00:14;6.82;;;1.42;;
54191;SDS011;40101;53.002;6.488;2023-08-21T00:02:48;3.97;;;1.13;;
54191;SDS011;40101;53.002;6.488;2023-08-21T00:05:22;1.52;;;1.17;;
54191;SDS011;40101;53.002;6.488;2023-08-21T00:07:48;4.13;;;1.10;;
54191;SDS011;40101;53.002;6.488;2023-08-21T00:10:18;3.20;;;1.40;;
54191;SDS011;40101;53.002;6.488;2023-08-21T00:12:44;5.80;;;1.77;;
54191;SDS011;40101;53.002;6.488;2023-08-21T00:15:09;7.35;;;1.58;;
54191;SDS011;40101;53.002;6.488;2023-08-21T00:17:35;4.13;;;1.63;;
54191;SDS011;40101;53.002;6.488;2023-08-21T00:20:01;3.70;;;2.20;;
54191;SDS011;40101;53.002;6.488;2023-08-21T00:22:27;5.78;;;2.55;;
54191;SDS011;40101;53.002;6.488;2023-08-21T00:24:53;7.25;;;2.00;;
54191;SDS011;40101;53.002;6.488;2023-08-21T00:27:19;6.00;;;2.53;;
54191;SDS011;40101;53.002;6.488;2023-08-21T00:29:44;6.72;;;2.08;;
54191;SDS011;40101;53.002;6.488;2023-08-21T00:32:10;8.52;;;2.20;;
54191;SDS011;40101;53.002;6.488;2023-08-21T00:34:37;9.98;;;2.00;;
54191;SDS011;40101;53.002;6.488;2023-08-21T00:37:03;4.10;;;1.50;;
54191;SDS011;40101;53.002;6.488;2023-08-21T00:39:29;4.63;;;1.70;;
54191;SDS011;40101;53.002;6.488;2023-08-21T00:41:55;3.25;;;1.30;;
54191;SDS011;40101;53.002;6.488;2023-08-21T00:44:20;2.33;;;1.83;;
54191;SDS011;40101;53.002;6.488;2023-08-21T00:46:46;6.65;;;1.92;;
54191;SDS011;40101;53.002;6.488;2023-08-21T00:49:12;4.28;;;2.13;;
54191;SDS011;40101;53.002;6.488;2023-08-21T00:51:40;3.50;;;2.00;;
54191;SDS011;40101;53.002;6.488;2023-08-21T00:54:09;2.08;;;1.88;;
54191;SDS011;40101;53.002;6.488;2023-08-21T00:56:35;3.15;;;1.35;;
54191;SDS011;40101;53.002;6.488;2023-08-21T01:02:41;1.42;;;0.98;;
54191;SDS011;40101;53.002;6.488;2023-08-21T01:06:16;0.98;;;0.88;;
54191;SDS011;40101;53.002;6.488;2023-08-21T01:16:14;1.35;;;1.00;;
54191;SDS011;40101;53.002;6.488;2023-08-21T01:18:44;2.70;;;1.10;;
54191;SDS011;40101;53.002;6.488;2023-08-21T01:21:17;3.60;;;1.10;;
54191;SDS011;40101;53.002;6.488;2023-08-21T01:23:43;1.65;;;0.88;;
54191;SDS011;40101;53.002;6.488;2023-08-21T01:26:08;3.47;;;1.05;;
54191;SDS011;40101;53.002;6.488;2023-08-21T01:28:34;0.85;;;0.82;;
54191;SDS011;40101;53.002;6.488;2023-08-21T01:33:26;7.35;;;1.55;;
54191;SDS011;40101;53.002;6.488;2023-08-21T01:35:55;3.55;;;1.30;;
54191;SDS011;40101;53.002;6.488;2023-08-21T01:38:23;1.15;;;1.05;;
54191;SDS011;40101;53.002;6.488;2023-08-21T01:40:49;0.70;;;0.50;;
54191;SDS011;40101;53.002;6.488;2023-08-21T01:43:15;0.70;;;0.70;;
54191;SDS011;40101;53.002;6.488;2023-08-21T01:45:41;0.65;;;0.55;;
54191;SDS011;40101;53.002;6.488;2023-08-21T01:48:06;0.57;;;0.50;;
54191;SDS011;40101;53.002;6.488;2023-08-21T01:50:32;3.83;;;0.73;;
54191;SDS011;40101;53.002;6.488;2023-08-21T01:52:58;2.28;;;0.60;;
54191;SDS011;40101;53.002;6.488;2023-08-21T01:55:23;1.13;;;0.70;;
54191;SDS011;40101;53.002;6.488;2023-08-21T01:57:49;1.40;;;0.80;;
54191;SDS011;40101;53.002;6.488;2023-08-21T02:00:14;2.33;;;1.15;;
54191;SDS011;40101;53.002;6.488;2023-08-21T02:02:40;2.03;;;1.00;;
54191;SDS011;40101;53.002;6.488;2023-08-21T02:05:06;4.95;;;1.20;;
54191;SDS011;40101;53.002;6.488;2023-08-21T02:07:32;1.80;;;1.45;;
54191;SDS011;40101;53.002;6.488;2023-08-21T02:10:01;4.93;;;1.25;;
54191;SDS011;40101;53.002;6.488;2023-08-21T02:12:26;1.38;;;0.90;;
54191;SDS011;40101;53.002;6.488;2023-08-21T02:14:52;2.05;;;0.80;;
54191;SDS011;40101;53.002;6.488;2023-08-21T02:17:17;4.82;;;0.85;;
54191;SDS011;40101;53.002;6.488;2023-08-21T02:19:43;10.25;;;1.48;;
54191;SDS011;40101;53.002;6.488;2023-08-21T02:22:09;2.00;;;0.80;;
54191;SDS011;40101;53.002;6.488;2023-08-21T02:24:34;3.30;;;0.80;;
54191;SDS011;40101;53.002;6.488;2023-08-21T02:27:00;2.15;;;0.80;;
54191;SDS011;40101;53.002;6.488;2023-08-21T02:29:26;0.80;;;0.80;;
54191;SDS011;40101;53.002;6.488;2023-08-21T02:31:51;1.30;;;0.80;;
54191;SDS011;40101;53.002;6.488;2023-08-21T02:34:17;4.03;;;1.60;;
54191;SDS011;40101;53.002;6.488;2023-08-21T02:36:42;1.83;;;1.10;;
54191;SDS011;40101;53.002;6.488;2023-08-21T02:39:08;3.25;;;1.00;;
54191;SDS011;40101;53.002;6.488;2023-08-21T02:41:34;4.72;;;1.70;;
54191;SDS011;40101;53.002;6.488;2023-08-21T02:43:59;4.38;;;2.50;;
54191;SDS011;40101;53.002;6.488;2023-08-21T02:46:25;10.52;;;1.80;;
54191;SDS011;40101;53.002;6.488;2023-08-21T02:48:50;3.65;;;1.50;;
54191;SDS011;40101;53.002;6.488;2023-08-21T02:51:16;2.63;;;1.38;;
54191;SDS011;40101;53.002;6.488;2023-08-21T02:53:42;2.38;;;1.23;;
54191;SDS011;40101;53.002;6.488;2023-08-21T02:56:07;1.45;;;0.82;;
54191;SDS011;40101;53.002;6.488;2023-08-21T02:58:33;1.23;;;1.13;;
54191;SDS011;40101;53.002;6.488;2023-08-21T03:00:58;5.47;;;1.63;;
54191;SDS011;40101;53.002;6.488;2023-08-21T03:03:24;6.07;;;1.77;;
54191;SDS011;40101;53.002;6.488;2023-08-21T03:05:50;3.05;;;1.40;;
54191;SDS011;40101;53.002;6.488;2023-08-21T03:08:15;1.60;;;1.30;;
54191;SDS011;40101;53.002;6.488;2023-08-21T03:10:42;4.55;;;1.73;;
54191;SDS011;40101;53.002;6.488;2023-08-21T03:13:07;2.20;;;1.63;;
54191;SDS011;40101;53.002;6.488;2023-08-21T03:15:34;2.28;;;1.27;;
54191;SDS011;40101;53.002;6.488;2023-08-21T03:18:00;1.88;;;0.95;;
54191;SDS011;40101;53.002;6.488;2023-08-21T03:20:25;1.90;;;1.20;;
54191;SDS011;40101;53.002;6.488;2023-08-21T03:22:51;1.65;;;1.02;;
54191;SDS011;40101;53.002;6.488;2023-08-21T03:25:16;1.88;;;1.30;;
54191;SDS011;40101;53.002;6.488;2023-08-21T03:27:42;2.47;;;1.23;;
54191;SDS011;40101;53.002;6.488;2023-08-21T03:30:09;0.73;;;0.73;;
54191;SDS011;40101;53.002;6.488;2023-08-21T03:32:35;0.93;;;0.70;;
54191;SDS011;40101;53.002;6.488;2023-08-21T03:35:01;3.92;;;0.98;;
54191;SDS011;40101;53.002;6.488;2023-08-21T03:37:27;2.72;;;0.43;;
54191;SDS011;40101;53.002;6.488;2023-08-21T03:39:52;0.70;;;0.70;;
54191;SDS011;40101;53.002;6.488;2023-08-21T03:42:18;2.25;;;0.80;;
54191;SDS011;40101;53.002;6.488;2023-08-21T03:44:43;0.80;;;0.80;;
54191;SDS011;40101;53.002;6.488;2023-08-21T03:47:10;0.80;;;0.80;;
54191;SDS011;40101;53.002;6.488;2023-08-21T03:49:36;3.35;;;1.75;;
54191;SDS011;40101;53.002;6.488;2023-08-21T03:52:01;2.53;;;1.10;;
54191;SDS011;40101;53.002;6.488;2023-08-21T03:54:27;5.38;;;1.10;;
54191;SDS011;40101;53.002;6.488;2023-08-21T03:56:52;1.85;;;0.70;;
54191;SDS011;40101;53.002;6.488;2023-08-21T03:59:18;2.10;;;0.90;;
54191;SDS011;40101;53.002;6.488;2023-08-21T04:01:44;0.98;;;0.88;;
54191;SDS011;40101;53.002;6.488;2023-08-21T04:04:09;4.13;;;1.10;;
54191;SDS011;40101;53.002;6.488;2023-08-21T04:06:35;4.55;;;1.17;;
54191;SDS011;40101;53.002;6.488;2023-08-21T04:09:01;1.67;;;0.88;;
54191;SDS011;40101;53.002;6.488;2023-08-21T04:11:26;2.50;;;0.75;;
54191;SDS011;40101;53.002;6.488;2023-08-21T04:13:53;2.33;;;0.90;;
54191;SDS011;40101;53.002;6.488;2023-08-21T04:16:19;2.15;;;0.85;;
54191;SDS011;40101;53.002;6.488;2023-08-21T04:18:46;4.78;;;1.08;;
54191;SDS011;40101;53.002;6.488;2023-08-21T04:21:12;4.28;;;1.60;;
54191;SDS011;40101;53.002;6.488;2023-08-21T04:23:37;1.35;;;1.10;;
54191;SDS011;40101;53.002;6.488;2023-08-21T04:26:03;3.40;;;1.20;;
54191;SDS011;40101;53.002;6.488;2023-08-21T04:28:32;6.50;;;1.95;;
54191;SDS011;40101;53.002;6.488;2023-08-21T04:30:58;15.50;;;1.83;;
54191;SDS011;40101;53.002;6.488;2023-08-21T04:33:25;8.98;;;1.98;;
54191;SDS011;40101;53.002;6.488;2023-08-21T04:35:51;3.22;;;1.15;;
54191;SDS011;40101;53.002;6.488;2023-08-21T04:38:17;1.95;;;1.20;;
54191;SDS011;40101;53.002;6.488;2023-08-21T04:40:43;3.08;;;1.60;;
54191;SDS011;40101;53.002;6.488;2023-08-21T04:43:08;3.33;;;1.10;;
54191;SDS011;40101;53.002;6.488;2023-08-21T04:45:34;4.20;;;1.52;;
54191;SDS011;40101;53.002;6.488;2023-08-21T04:47:59;4.05;;;1.50;;
54191;SDS011;40101;53.002;6.488;2023-08-21T04:50:25;1.52;;;1.00;;
54191;SDS011;40101;53.002;6.488;2023-08-21T04:52:51;7.38;;;2.08;;
54191;SDS011;40101;53.002;6.488;2023-08-21T04:55:17;3.90;;;1.15;;
54191;SDS011;40101;53.002;6.488;2023-08-21T04:57:42;0.90;;;0.80;;
54191;SDS011;40101;53.002;6.488;2023-08-21T05:00:08;0.93;;;0.80;;
54191;SDS011;40101;53.002;6.488;2023-08-21T05:02:34;2.65;;;1.00;;
54191;SDS011;40101;53.002;6.488;2023-08-21T05:05:00;1.85;;;0.98;;
54191;SDS011;40101;53.002;6.488;2023-08-21T05:07:26;7.22;;;1.92;;
54191;SDS011;40101;53.002;6.488;2023-08-21T05:09:52;1.15;;;0.73;;
54191;SDS011;40101;53.002;6.488;2023-08-21T05:12:17;0.50;;;0.50;;
54191;SDS011;40101;53.002;6.488;2023-08-21T05:14:43;1.20;;;1.00;;
54191;SDS011;40101;53.002;6.488;2023-08-21T05:17:09;0.88;;;0.50;;
54191;SDS011;40101;53.002;6.488;2023-08-21T05:19:34;0.47;;;0.38;;
54191;SDS011;40101;53.002;6.488;2023-08-21T05:22:00;2.25;;;0.50;;
54191;SDS011;40101;53.002;6.488;2023-08-21T05:24:26;0.40;;;0.40;;
54191;SDS011;40101;53.002;6.488;2023-08-21T05:26:51;0.40;;;0.40;;
54191;SDS011;40101;53.002;6.488;2023-08-21T05:29:17;0.43;;;0.43;;
54191;SDS011;40101;53.002;6.488;2023-08-21T05:31:43;1.10;;;0.40;;
54191;SDS011;40101;53.002;6.488;2023-08-21T05:34:08;1.25;;;0.55;;
54191;SDS011;40101;53.002;6.488;2023-08-21T05:36:34;0.98;;;0.70;;
54191;SDS011;40101;53.002;6.488;2023-08-21T05:39:01;4.13;;;1.08;;
54191;SDS011;40101;53.002;6.488;2023-08-21T05:41:30;2.97;;;1.00;;
54191;SDS011;40101;53.002;6.488;2023-08-21T05:43:57;2.85;;;1.38;;
54191;SDS011;40101;53.002;6.488;2023-08-21T05:46:22;2.90;;;1.02;;
54191;SDS011;40101;53.002;6.488;2023-08-21T05:48:48;3.92;;;1.33;;
54191;SDS011;40101;53.002;6.488;2023-08-21T05:51:14;6.05;;;1.10;;
54191;SDS011;40101;53.002;6.488;2023-08-21T05:53:39;5.70;;;1.60;;
54191;SDS011;40101;53.002;6.488;2023-08-21T05:56:05;6.18;;;2.08;;
54191;SDS011;40101;53.002;6.488;2023-08-21T05:58:30;4.00;;;1.30;;
54191;SDS011;40101;53.002;6.488;2023-08-21T06:00:58;4.30;;;1.63;;
54191;SDS011;40101;53.002;6.488;2023-08-21T06:03:24;2.80;;;1.88;;
54191;SDS011;40101;53.002;6.488;2023-08-21T06:05:49;5.32;;;1.95;;
54191;SDS011;40101;53.002;6.488;2023-08-21T06:08:15;2.42;;;1.50;;
54191;SDS011;40101;53.002;6.488;2023-08-21T06:10:41;3.30;;;1.52;;
54191;SDS011;40101;53.002;6.488;2023-08-21T06:13:07;2.08;;;1.73;;
54191;SDS011;40101;53.002;6.488;2023-08-21T06:15:33;4.55;;;2.00;;
54191;SDS011;40101;53.002;6.488;2023-08-21T06:17:59;4.22;;;2.05;;
54191;SDS011;40101;53.002;6.488;2023-08-21T06:20:25;4.25;;;1.85;;
54191;SDS011;40101;53.002;6.488;2023-08-21T06:22:51;6.32;;;1.92;;
54191;SDS011;40101;53.002;6.488;2023-08-21T06:25:16;6.80;;;2.30;;
54191;SDS011;40101;53.002;6.488;2023-08-21T06:27:44;9.50;;;2.28;;
54191;SDS011;40101;53.002;6.488;2023-08-21T06:30:10;7.25;;;2.58;;
54191;SDS011;40101;53.002;6.488;2023-08-21T06:32:41;5.32;;;2.50;;
54191;SDS011;40101;53.002;6.488;2023-08-21T06:35:08;4.78;;;2.78;;
54191;SDS011;40101;53.002;6.488;2023-08-21T06:37:33;5.63;;;2.50;;
54191;SDS011;40101;53.002;6.488;2023-08-21T06:39:59;9.77;;;2.85;;
54191;SDS011;40101;53.002;6.488;2023-08-21T06:42:25;5.50;;;2.88;;
54191;SDS011;40101;53.002;6.488;2023-08-21T06:44:52;7.57;;;2.78;;
54191;SDS011;40101;53.002;6.488;2023-08-21T06:47:18;8.60;;;2.97;;
54191;SDS011;40101;53.002;6.488;2023-08-21T06:49:44;6.93;;;2.33;;
54191;SDS011;40101;53.002;6.488;2023-08-21T06:52:09;5.13;;;2.80;;
54191;SDS011;40101;53.002;6.488;2023-08-21T06:54:35;7.07;;;3.83;;
54191;SDS011;40101;53.002;6.488;2023-08-21T06:57:01;8.13;;;2.90;;
54191;SDS011;40101;53.002;6.488;2023-08-21T06:59:26;11.75;;;3.05;;
54191;SDS011;40101;53.002;6.488;2023-08-21T07:01:52;8.43;;;3.42;;
54191;SDS011;40101;53.002;6.488;2023-08-21T07:04:17;8.82;;;3.25;;
54191;SDS011;40101;53.002;6.488;2023-08-21T07:06:43;6.63;;;3.00;;
54191;SDS011;40101;53.002;6.488;2023-08-21T07:09:09;7.13;;;2.75;;
54191;SDS011;40101;53.002;6.488;2023-08-21T07:11:35;7.43;;;2.55;;
54191;SDS011;40101;53.002;6.488;2023-08-21T07:14:00;7.00;;;2.97;;
54191;SDS011;40101;53.002;6.488;2023-08-21T07:16:26;12.43;;;2.85;;
54191;SDS011;40101;53.002;6.488;2023-08-21T07:18:52;5.25;;;2.20;;
54191;SDS011;40101;53.002;6.488;2023-08-21T07:21:17;6.22;;;2.22;;
54191;SDS011;40101;53.002;6.488;2023-08-21T07:23:43;6.70;;;2.50;;
54191;SDS011;40101;53.002;6.488;2023-08-21T07:26:08;5.00;;;1.88;;
54191;SDS011;40101;53.002;6.488;2023-08-21T07:28:34;6.13;;;2.47;;
54191;SDS011;40101;53.002;6.488;2023-08-21T07:31:00;6.22;;;2.33;;
54191;SDS011;40101;53.002;6.488;2023-08-21T07:33:26;3.72;;;1.33;;
54191;SDS011;40101;53.002;6.488;2023-08-21T07:38:26;6.28;;;1.40;;
54191;SDS011;40101;53.002;6.488;2023-08-21T07:41:01;4.68;;;1.33;;
54191;SDS011;40101;53.002;6.488;2023-08-21T07:43:35;4.00;;;1.40;;
54191;SDS011;40101;53.002;6.488;2023-08-21T07:46:05;4.60;;;1.38;;
54191;SDS011;40101;53.002;6.488;2023-08-21T07:48:31;3.00;;;1.00;;
54191;SDS011;40101;53.002;6.488;2023-08-21T07:50:57;6.55;;;1.92;;
54191;SDS011;40101;53.002;6.488;2023-08-21T07:53:23;3.55;;;1.25;;
54191;SDS011;40101;53.002;6.488;2023-08-21T07:55:50;6.30;;;0.70;;
54191;SDS011;40101;53.002;6.488;2023-08-21T07:58:16;4.00;;;1.20;;
54191;SDS011;40101;53.002;6.488;2023-08-21T08:00:41;7.10;;;1.13;;
54191;SDS011;40101;53.002;6.488;2023-08-21T08:03:10;4.22;;;0.98;;
54191;SDS011;40101;53.002;6.488;2023-08-21T08:05:39;3.60;;;1.00;;
54191;SDS011;40101;53.002;6.488;2023-08-21T08:08:08;4.80;;;1.48;;
54191;SDS011;40101;53.002;6.488;2023-08-21T08:10:38;4.65;;;0.90;;
54191;SDS011;40101;53.002;6.488;2023-08-21T08:13:06;2.92;;;0.90;;
54191;SDS011;40101;53.002;6.488;2023-08-21T08:15:33;8.98;;;1.27;;
54191;SDS011;40101;53.002;6.488;2023-08-21T08:18:00;4.57;;;0.95;;
54191;SDS011;40101;53.002;6.488;2023-08-21T08:20:30;5.28;;;0.93;;
54191;SDS011;40101;53.002;6.488;2023-08-21T08:22:55;3.75;;;0.90;;
54191;SDS011;40101;53.002;6.488;2023-08-21T08:25:21;3.08;;;0.95;;
54191;SDS011;40101;53.002;6.488;2023-08-21T08:27:48;5.10;;;1.05;;
54191;SDS011;40101;53.002;6.488;2023-08-21T08:30:14;3.28;;;0.73;;
54191;SDS011;40101;53.002;6.488;2023-08-21T08:35:19;2.30;;;0.85;;
54191;SDS011;40101;53.002;6.488;2023-08-21T08:37:44;2.47;;;0.77;;
54191;SDS011;40101;53.002;6.488;2023-08-21T08:40:13;4.13;;;0.90;;
54191;SDS011;40101;53.002;6.488;2023-08-21T08:42:39;2.63;;;0.88;;
54191;SDS011;40101;53.002;6.488;2023-08-21T08:45:12;3.55;;;0.98;;
54191;SDS011;40101;53.002;6.488;2023-08-21T08:47:39;3.30;;;0.70;;
54191;SDS011;40101;53.002;6.488;2023-08-21T08:50:06;1.77;;;0.75;;
54191;SDS011;40101;53.002;6.488;2023-08-21T08:52:34;3.22;;;0.90;;
54191;SDS011;40101;53.002;6.488;2023-08-21T08:55:04;3.05;;;0.73;;
54191;SDS011;40101;53.002;6.488;2023-08-21T08:57:33;2.75;;;0.60;;
54191;SDS011;40101;53.002;6.488;2023-08-21T08:59:59;2.60;;;0.55;;
54191;SDS011;40101;53.002;6.488;2023-08-21T09:02:25;4.63;;;0.98;;
54191;SDS011;40101;53.002;6.488;2023-08-21T09:04:51;1.50;;;0.50;;
54191;SDS011;40101;53.002;6.488;2023-08-21T09:07:20;3.58;;;0.95;;
54191;SDS011;40101;53.002;6.488;2023-08-21T09:09:47;6.05;;;1.27;;
54191;SDS011;40101;53.002;6.488;2023-08-21T09:12:17;2.50;;;0.60;;
54191;SDS011;40101;53.002;6.488;2023-08-21T09:14:44;2.25;;;0.70;;
54191;SDS011;40101;53.002;6.488;2023-08-21T09:17:10;2.72;;;0.82;;
54191;SDS011;40101;53.002;6.488;2023-08-21T09:19:39;3.88;;;0.98;;
54191;SDS011;40101;53.002;6.488;2023-08-21T09:22:12;3.20;;;0.82;;
54191;SDS011;40101;53.002;6.488;2023-08-21T09:27:41;10.77;;;0.90;;
54191;SDS011;40101;53.002;6.488;2023-08-21T09:30:10;2.28;;;0.60;;
54191;SDS011;40101;53.002;6.488;2023-08-21T09:33:01;4.90;;;1.10;;
54191;SDS011;40101;53.002;6.488;2023-08-21T09:35:31;3.08;;;0.73;;
54191;SDS011;40101;53.002;6.488;2023-08-21T09:38:04;2.35;;;0.70;;
54191;SDS011;40101;53.002;6.488;2023-08-21T09:40:30;2.08;;;0.80;;
54191;SDS011;40101;53.002;6.488;2023-08-21T09:42:56;1.88;;;0.60;;
54191;SDS011;40101;53.002;6.488;2023-08-21T09:45:22;2.50;;;0.80;;
54191;SDS011;40101;53.002;6.488;2023-08-21T09:47:48;2.17;;;0.65;;
54191;SDS011;40101;53.002;6.488;2023-08-21T09:50:15;3.63;;;0.73;;
54191;SDS011;40101;53.002;6.488;2023-08-21T09:52:41;5.72;;;1.10;;
54191;SDS011;40101;53.002;6.488;2023-08-21T09:55:08;3.58;;;0.88;;
54191;SDS011;40101;53.002;6.488;2023-08-21T09:57:35;6.30;;;0.77;;
54191;SDS011;40101;53.002;6.488;2023-08-21T10:00:02;2.63;;;0.75;;
54191;SDS011;40101;53.002;6.488;2023-08-21T10:02:40;3.60;;;0.52;;
54191;SDS011;40101;53.002;6.488;2023-08-21T10:05:09;1.25;;;0.73;;
54191;SDS011;40101;53.002;6.488;2023-08-21T10:07:35;3.20;;;0.68;;
54191;SDS011;40101;53.002;6.488;2023-08-21T10:10:02;1.52;;;0.65;;
54191;SDS011;40101;53.002;6.488;2023-08-21T10:12:28;4.47;;;1.23;;
54191;SDS011;40101;53.002;6.488;2023-08-21T10:14:54;2.83;;;0.90;;
54191;SDS011;40101;53.002;6.488;2023-08-21T10:17:19;3.97;;;0.90;;
54191;SDS011;40101;53.002;6.488;2023-08-21T10:19:52;6.32;;;0.77;;
54191;SDS011;40101;53.002;6.488;2023-08-21T10:22:39;2.15;;;0.60;;
54191;SDS011;40101;53.002;6.488;2023-08-21T10:25:20;3.08;;;0.85;;
54191;SDS011;40101;53.002;6.488;2023-08-21T10:28:05;3.63;;;0.80;;
54191;SDS011;40101;53.002;6.488;2023-08-21T10:30:31;1.92;;;0.63;;
54191;SDS011;40101;53.002;6.488;2023-08-21T10:32:58;4.05;;;0.73;;
54191;SDS011;40101;53.002;6.488;2023-08-21T10:35:25;6.13;;;0.77;;
54191;SDS011;40101;53.002;6.488;2023-08-21T10:40:41;4.18;;;0.80;;
54191;SDS011;40101;53.002;6.488;2023-08-21T10:43:45;5.13;;;0.90;;
54191;SDS011;40101;53.002;6.488;2023-08-21T10:46:11;4.50;;;0.80;;
54191;SDS011;40101;53.002;6.488;2023-08-21T10:48:38;1.50;;;0.60;;
54191;SDS011;40101;53.002;6.488;2023-08-21T10:51:05;3.95;;;0.63;;
54191;SDS011;40101;53.002;6.488;2023-08-21T10:53:32;5.13;;;1.05;;
54191;SDS011;40101;53.002;6.488;2023-08-21T10:56:02;3.10;;;0.85;;
54191;SDS011;40101;53.002;6.488;2023-08-21T10:58:41;2.75;;;0.70;;
54191;SDS011;40101;53.002;6.488;2023-08-21T11:01:07;1.70;;;0.80;;
54191;SDS011;40101;53.002;6.488;2023-08-21T11:03:32;3.40;;;0.80;;
54191;SDS011;40101;53.002;6.488;2023-08-21T11:06:02;2.17;;;0.68;;
54191;SDS011;40101;53.002;6.488;2023-08-21T11:08:35;5.83;;;1.10;;
54191;SDS011;40101;53.002;6.488;2023-08-21T11:11:01;3.92;;;1.23;;
54191;SDS011;40101;53.002;6.488;2023-08-21T11:13:29;3.13;;;1.50;;
54191;SDS011;40101;53.002;6.488;2023-08-21T11:16:01;2.67;;;0.93;;
54191;SDS011;40101;53.002;6.488;2023-08-21T11:18:33;2.65;;;0.90;;
54191;SDS011;40101;53.002;6.488;2023-08-21T11:21:06;2.83;;;0.90;;
54191;SDS011;40101;53.002;6.488;2023-08-21T11:23:38;3.53;;;1.05;;
54191;SDS011;40101;53.002;6.488;2023-08-21T11:26:05;3.90;;;1.08;;
54191;SDS011;40101;53.002;6.488;2023-08-21T11:28:34;4.38;;;1.58;;
54191;SDS011;40101;53.002;6.488;2023-08-21T11:31:00;2.08;;;1.02;;
54191;SDS011;40101;53.002;6.488;2023-08-21T11:33:26;4.57;;;1.00;;
54191;SDS011;40101;53.002;6.488;2023-08-21T11:35:53;1.92;;;0.80;;
54191;SDS011;40101;53.002;6.488;2023-08-21T11:38:20;3.60;;;1.23;;
54191;SDS011;40101;53.002;6.488;2023-08-21T11:40:59;2.90;;;0.98;;
54191;SDS011;40101;53.002;6.488;2023-08-21T11:43:34;2.47;;;0.60;;
54191;SDS011;40101;53.002;6.488;2023-08-21T11:46:04;1.87;;;0.70;;
54191;SDS011;40101;53.002;6.488;2023-08-21T11:48:31;3.63;;;1.00;;
54191;SDS011;40101;53.002;6.488;2023-08-21T11:50:58;1.27;;;0.82;;
54191;SDS011;40101;53.002;6.488;2023-08-21T11:56:03;3.05;;;1.10;;
54191;SDS011;40101;53.002;6.488;2023-08-21T11:58:53;2.42;;;0.70;;
54191;SDS011;40101;53.002;6.488;2023-08-21T12:01:19;5.07;;;1.60;;
54191;SDS011;40101;53.002;6.488;2023-08-21T12:03:45;1.92;;;0.70;;
54191;SDS011;40101;53.002;6.488;2023-08-21T12:06:11;3.13;;;0.80;;
54191;SDS011;40101;53.002;6.488;2023-08-21T12:08:38;1.13;;;0.63;;
54191;SDS011;40101;53.002;6.488;2023-08-21T12:11:04;2.53;;;0.95;;
54191;SDS011;40101;53.002;6.488;2023-08-21T12:13:30;3.17;;;1.42;;
54191;SDS011;40101;53.002;6.488;2023-08-21T12:15:56;2.17;;;0.65;;
54191;SDS011;40101;53.002;6.488;2023-08-21T12:18:22;2.63;;;1.02;;
54191;SDS011;40101;53.002;6.488;2023-08-21T12:20:48;1.40;;;0.80;;
54191;SDS011;40101;53.002;6.488;2023-08-21T12:23:13;5.00;;;0.90;;
54191;SDS011;40101;53.002;6.488;2023-08-21T12:25:39;2.72;;;0.65;;
54191;SDS011;40101;53.002;6.488;2023-08-21T12:28:05;2.00;;;0.57;;
54191;SDS011;40101;53.002;6.488;2023-08-21T12:30:31;3.30;;;0.90;;
54191;SDS011;40101;53.002;6.488;2023-08-21T12:32:57;2.38;;;0.65;;
54191;SDS011;40101;53.002;6.488;2023-08-21T12:35:22;3.20;;;1.10;;
54191;SDS011;40101;53.002;6.488;2023-08-21T12:37:48;3.25;;;0.70;;
54191;SDS011;40101;53.002;6.488;2023-08-21T12:40:14;3.00;;;0.80;;
54191;SDS011;40101;53.002;6.488;2023-08-21T12:42:39;3.65;;;0.98;;
54191;SDS011;40101;53.002;6.488;2023-08-21T12:45:05;4.45;;;0.90;;
54191;SDS011;40101;53.002;6.488;2023-08-21T12:47:31;4.45;;;1.10;;
54191;SDS011;40101;53.002;6.488;2023-08-21T12:49:57;2.30;;;0.60;;
54191;SDS011;40101;53.002;6.488;2023-08-21T12:52:23;2.67;;;0.60;;
54191;SDS011;40101;53.002;6.488;2023-08-21T12:54:49;6.35;;;1.33;;
54191;SDS011;40101;53.002;6.488;2023-08-21T12:57:14;4.78;;;0.73;;
54191;SDS011;40101;53.002;6.488;2023-08-21T12:59:41;3.63;;;0.60;;
54191;SDS011;40101;53.002;6.488;2023-08-21T13:02:07;3.97;;;0.80;;
54191;SDS011;40101;53.002;6.488;2023-08-21T13:04:33;3.33;;;1.02;;
54191;SDS011;40101;53.002;6.488;2023-08-21T13:06:59;3.72;;;1.02;;
54191;SDS011;40101;53.002;6.488;2023-08-21T13:09:25;4.15;;;1.02;;
54191;SDS011;40101;53.002;6.488;2023-08-21T13:11:51;5.57;;;0.80;;
54191;SDS011;40101;53.002;6.488;2023-08-21T13:14:16;1.65;;;0.60;;
54191;SDS011;40101;53.002;6.488;2023-08-21T13:16:42;2.58;;;0.63;;
54191;SDS011;40101;53.002;6.488;2023-08-21T13:19:08;5.03;;;1.35;;
54191;SDS011;40101;53.002;6.488;2023-08-21T13:21:33;2.85;;;0.77;;
54191;SDS011;40101;53.002;6.488;2023-08-21T13:23:59;3.80;;;0.88;;
54191;SDS011;40101;53.002;6.488;2023-08-21T13:26:25;1.75;;;0.73;;
54191;SDS011;40101;53.002;6.488;2023-08-21T13:28:52;3.33;;;1.23;;
54191;SDS011;40101;53.002;6.488;2023-08-21T13:31:18;3.10;;;0.70;;
54191;SDS011;40101;53.002;6.488;2023-08-21T13:33:44;2.38;;;0.68;;
54191;SDS011;40101;53.002;6.488;2023-08-21T13:36:10;4.45;;;0.85;;
54191;SDS011;40101;53.002;6.488;2023-08-21T13:38:36;2.30;;;0.65;;
54191;SDS011;40101;53.002;6.488;2023-08-21T13:41:02;7.93;;;2.75;;
54191;SDS011;40101;53.002;6.488;2023-08-21T13:43:28;3.05;;;0.77;;
54191;SDS011;40101;53.002;6.488;2023-08-21T13:45:54;3.40;;;0.70;;
54191;SDS011;40101;53.002;6.488;2023-08-21T13:48:20;5.03;;;0.88;;
54191;SDS011;40101;53.002;6.488;2023-08-21T13:50:45;3.65;;;1.05;;
54191;SDS011;40101;53.002;6.488;2023-08-21T13:53:11;3.25;;;0.98;;
54191;SDS011;40101;53.002;6.488;2023-08-21T13:55:36;3.38;;;0.55;;
54191;SDS011;40101;53.002;6.488;2023-08-21T13:58:03;1.75;;;0.60;;
54191;SDS011;40101;53.002;6.488;2023-08-21T14:00:28;4.30;;;0.93;;
54191;SDS011;40101;53.002;6.488;2023-08-21T14:02:54;3.35;;;0.85;;
54191;SDS011;40101;53.002;6.488;2023-08-21T14:05:20;2.78;;;0.50;;
54191;SDS011;40101;53.002;6.488;2023-08-21T14:07:48;1.83;;;0.50;;
54191;SDS011;40101;53.002;6.488;2023-08-21T14:10:14;1.98;;;0.55;;
54191;SDS011;40101;53.002;6.488;2023-08-21T14:12:40;1.13;;;0.30;;
54191;SDS011;40101;53.002;6.488;2023-08-21T14:15:05;1.42;;;0.43;;
54191;SDS011;40101;53.002;6.488;2023-08-21T14:17:31;1.27;;;0.30;;
54191;SDS011;40101;53.002;6.488;2023-08-21T14:19:57;2.58;;;0.47;;
54191;SDS011;40101;53.002;6.488;2023-08-21T14:22:23;2.90;;;0.60;;
54191;SDS011;40101;53.002;6.488;2023-08-21T14:24:49;1.55;;;0.40;;
54191;SDS011;40101;53.002;6.488;2023-08-21T14:27:14;1.23;;;0.30;;
54191;SDS011;40101;53.002;6.488;2023-08-21T14:29:42;3.72;;;0.70;;
54191;SDS011;40101;53.002;6.488;2023-08-21T14:32:08;1.08;;;0.32;;
54191;SDS011;40101;53.002;6.488;2023-08-21T14:34:34;2.88;;;0.52;;
54191;SDS011;40101;53.002;6.488;2023-08-21T14:37:00;2.83;;;0.60;;
54191;SDS011;40101;53.002;6.488;2023-08-21T14:39:26;5.03;;;0.90;;
54191;SDS011;40101;53.002;6.488;2023-08-21T14:41:58;1.17;;;0.43;;
54191;SDS011;40101;53.002;6.488;2023-08-21T14:44:24;1.95;;;0.50;;
54191;SDS011;40101;53.002;6.488;2023-08-21T14:46:54;4.10;;;0.57;;
54191;SDS011;40101;53.002;6.488;2023-08-21T14:49:20;0.98;;;0.43;;
54191;SDS011;40101;53.002;6.488;2023-08-21T14:51:47;1.33;;;0.45;;
54191;SDS011;40101;53.002;6.488;2023-08-21T14:54:13;2.10;;;0.57;;
54191;SDS011;40101;53.002;6.488;2023-08-21T14:56:38;1.88;;;0.50;;
54191;SDS011;40101;53.002;6.488;2023-08-21T14:59:04;1.80;;;0.52;;
54191;SDS011;40101;53.002;6.488;2023-08-21T15:01:30;1.58;;;0.50;;
54191;SDS011;40101;53.002;6.488;2023-08-21T15:03:56;2.83;;;0.80;;
54191;SDS011;40101;53.002;6.488;2023-08-21T15:06:21;2.45;;;0.43;;
54191;SDS011;40101;53.002;6.488;2023-08-21T15:08:47;3.28;;;0.43;;
54191;SDS011;40101;53.002;6.488;2023-08-21T15:11:13;2.15;;;0.63;;
54191;SDS011;40101;53.002;6.488;2023-08-21T15:13:39;1.83;;;0.82;;